createdAt,value
2019-01-06T00:00:40.649Z,96557.97
2019-01-06T00:03:31.059Z,96552.71
2019-01-06T00:06:21.223Z,96544.05
2019-01-06T00:09:11.709Z,96547.56
2019-01-06T00:12:25.098Z,96556.69
2019-01-06T00:15:08.501Z,96555.85
2019-01-06T00:17:59.653Z,96546.77
2019-01-06T00:20:49.826Z,96557.25
2019-01-06T00:23:47.298Z,96553.39
2019-01-06T00:26:34.811Z,96550.94
2019-01-06T00:29:24.835Z,96549.20
2019-01-06T00:32:17.511Z,96547.91
2019-01-06T00:35:08.276Z,96551.42
2019-01-06T00:38:02.712Z,96548.02
2019-01-06T00:40:54.182Z,96543.45
2019-01-06T00:43:54.833Z,96556.19
2019-01-06T00:46:46.269Z,96551.51
2019-01-06T00:49:36.437Z,96547.84
2019-01-06T00:52:35.472Z,96544.78
2019-01-06T00:55:25.543Z,96555.33
2019-01-06T00:58:20.259Z,96545.95
2019-01-06T01:01:07.261Z,96537.56
2019-01-06T01:04:01.812Z,96538.84
2019-01-06T01:06:59.162Z,96536.12
2019-01-06T01:09:51.522Z,96539.70
2019-01-06T01:12:51.805Z,96544.13
2019-01-06T01:15:58.307Z,96540.53
2019-01-06T01:18:48.480Z,96532.63
2019-01-06T01:21:38.773Z,96554.59
2019-01-06T01:24:29.699Z,96553.20
2019-01-06T01:27:33.174Z,96562.80
2019-01-06T01:30:24.968Z,96569.42
2019-01-06T01:33:16.434Z,96574.34
2019-01-06T01:36:09.380Z,96584.29
2019-01-06T01:39:09.847Z,96568.06
2019-01-06T01:42:01.264Z,96560.20
2019-01-06T01:44:51.398Z,96567.61
2019-01-06T01:47:54.835Z,96547.60
2019-01-06T01:50:45.005Z,96546.77
2019-01-06T01:53:42.383Z,96540.72
2019-01-06T01:56:40.109Z,96553.42
2019-01-06T01:59:30.174Z,96555.20
2019-01-06T02:02:27.784Z,96548.77
2019-01-06T02:05:13.772Z,96558.72
2019-01-06T02:08:04.114Z,96564.09
2019-01-06T02:10:52.001Z,96566.47
2019-01-06T02:13:55.632Z,96581.30
2019-01-06T02:16:45.047Z,96578.66
2019-01-06T02:19:35.352Z,96575.66
2019-01-06T02:22:36.090Z,96571.55
2019-01-06T02:25:32.108Z,96567.42
2019-01-06T02:28:35.870Z,96554.68
2019-01-06T02:31:22.030Z,96557.94
2019-01-06T02:34:12.141Z,96552.45
2019-01-06T02:37:12.629Z,96561.38
2019-01-06T02:40:04.133Z,96554.45
2019-01-06T02:42:54.127Z,96555.85
2019-01-06T02:45:48.634Z,96549.69
2019-01-06T02:48:56.126Z,96548.05
2019-01-06T02:51:50.331Z,96554.14
2019-01-06T02:54:41.773Z,96555.58
2019-01-06T02:57:32.050Z,96560.00
2019-01-06T03:00:32.586Z,96553.88
2019-01-06T03:03:36.596Z,96553.66
2019-01-06T03:06:33.836Z,96539.43
2019-01-06T03:09:25.972Z,96543.22
2019-01-06T03:12:16.482Z,96547.80
2019-01-06T03:15:10.973Z,96541.52
2019-01-06T03:18:02.401Z,96543.37
2019-01-06T03:20:52.881Z,96542.99
2019-01-06T03:23:50.382Z,96532.14
2019-01-06T03:26:40.591Z,96534.59
2019-01-06T03:29:29.739Z,96530.08
2019-01-06T03:32:19.886Z,96528.80
2019-01-06T03:35:26.571Z,96526.66
2019-01-06T03:38:36.038Z,96518.14
2019-01-06T03:41:26.604Z,96507.39
2019-01-06T03:44:18.074Z,96509.36
2019-01-06T03:47:09.505Z,96506.91
2019-01-06T03:50:08.186Z,96517.87
2019-01-06T03:52:58.332Z,96515.30
2019-01-06T03:55:48.318Z,96532.28
2019-01-06T03:58:45.832Z,96524.31
2019-01-06T04:01:32.014Z,96518.82
2019-01-06T04:04:26.570Z,96520.02
2019-01-06T04:07:20.914Z,96514.14
2019-01-06T04:10:12.843Z,96512.99
2019-01-06T04:13:03.374Z,96512.05
2019-01-06T04:16:06.895Z,96510.42
2019-01-06T04:19:01.479Z,96506.45
2019-01-06T04:21:59.036Z,96500.16
2019-01-06T04:24:50.945Z,96503.76
2019-01-06T04:27:45.616Z,96508.56
2019-01-06T04:30:36.259Z,96505.13
2019-01-06T04:33:29.514Z,96511.94
2019-01-06T04:36:38.964Z,96510.17
2019-01-06T04:39:30.748Z,96512.73
2019-01-06T04:42:31.952Z,96510.97
2019-01-06T04:45:22.521Z,96512.13
2019-01-06T04:48:24.836Z,96507.82
2019-01-06T04:51:22.017Z,96500.70
2019-01-06T04:54:12.097Z,96507.59
2019-01-06T04:57:15.835Z,96504.13
2019-01-06T05:00:19.356Z,96492.08
2019-01-06T05:03:09.396Z,96505.76
2019-01-06T05:06:09.559Z,96499.91
2019-01-06T05:09:16.109Z,96501.91
2019-01-06T05:12:07.069Z,96497.22
2019-01-06T05:14:58.106Z,96498.94
2019-01-06T05:17:48.361Z,96500.80
2019-01-06T05:20:57.934Z,96502.25
2019-01-06T05:23:48.203Z,96494.96
2019-01-06T05:26:40.471Z,96501.73
2019-01-06T05:29:34.653Z,96501.42
2019-01-06T05:32:26.109Z,96499.91
2019-01-06T05:35:24.439Z,96500.84
2019-01-06T05:38:11.012Z,96502.24
2019-01-06T05:40:55.690Z,96516.85
2019-01-06T05:43:50.227Z,96513.08
2019-01-06T05:47:00.121Z,96512.13
2019-01-06T05:49:54.106Z,96515.70
2019-01-06T05:52:45.496Z,96509.11
2019-01-06T05:55:38.261Z,96518.73
2019-01-06T05:58:28.828Z,96519.28
2019-01-06T06:01:20.310Z,96516.85
2019-01-06T06:04:08.738Z,96520.85
2019-01-06T06:07:11.075Z,96524.94
2019-01-06T06:09:56.225Z,96520.02
2019-01-06T06:12:48.062Z,96522.23
2019-01-06T06:15:43.482Z,96519.08
2019-01-06T06:18:33.259Z,96515.94
2019-01-06T06:21:40.135Z,96518.98
2019-01-06T06:24:40.934Z,96515.70
2019-01-06T06:27:38.043Z,96519.22
2019-01-06T06:30:28.591Z,96511.45
2019-01-06T06:33:32.920Z,96509.22
2019-01-06T06:36:25.387Z,96530.05
2019-01-06T06:39:22.858Z,96532.31
2019-01-06T06:42:14.294Z,96536.97
2019-01-06T06:45:04.488Z,96548.57
2019-01-06T06:48:02.092Z,96545.74
2019-01-06T06:51:02.325Z,96549.63
2019-01-06T06:53:50.352Z,96542.52
2019-01-06T06:56:41.837Z,96541.31
2019-01-06T06:59:36.011Z,96545.42
2019-01-06T07:03:29.611Z,96544.20
2019-01-06T07:06:39.629Z,96547.80
2019-01-06T07:09:24.491Z,96563.03
2019-01-06T07:12:24.948Z,96564.73
2019-01-06T07:15:22.183Z,96559.71
2019-01-06T07:18:23.059Z,96549.95
2019-01-06T07:21:14.482Z,96558.08
2019-01-06T07:24:13.100Z,96550.74
2019-01-06T07:27:03.063Z,96563.60
2019-01-06T07:30:12.686Z,96559.44
2019-01-06T07:32:55.351Z,96562.43
2019-01-06T07:35:45.489Z,96571.69
2019-01-06T07:38:33.475Z,96564.23
2019-01-06T07:41:18.991Z,96576.50
2019-01-06T07:44:13.826Z,96561.09
2019-01-06T07:47:02.294Z,96552.52
2019-01-06T07:50:05.982Z,96554.80
2019-01-06T07:52:56.154Z,96561.22
2019-01-06T07:55:46.440Z,96550.05
2019-01-06T07:58:36.476Z,96557.80
2019-01-06T08:01:27.959Z,96558.63
2019-01-06T08:04:25.376Z,96564.46
2019-01-06T08:07:28.730Z,96553.60
2019-01-06T08:10:20.223Z,96561.92
2019-01-06T08:13:21.678Z,96559.95
2019-01-06T08:16:31.434Z,96567.09
2019-01-06T08:19:21.505Z,96574.92
2019-01-06T08:22:11.719Z,96582.42
2019-01-06T08:25:15.238Z,96582.30
2019-01-06T08:28:24.647Z,96587.94
2019-01-06T08:31:21.973Z,96587.22
2019-01-06T08:34:13.453Z,96590.05
2019-01-06T08:37:03.474Z,96584.65
2019-01-06T08:39:53.551Z,96586.16
2019-01-06T08:42:44.960Z,96582.19
2019-01-06T08:45:48.677Z,96584.19
2019-01-06T08:48:55.179Z,96583.16
2019-01-06T08:52:04.587Z,96581.27
2019-01-06T08:55:04.290Z,96589.91
2019-01-06T08:57:55.756Z,96590.05
2019-01-06T09:00:54.497Z,96587.81
2019-01-06T09:03:45.576Z,96588.13
2019-01-06T09:06:35.906Z,96593.64
2019-01-06T09:09:29.304Z,96599.66
2019-01-06T09:12:20.389Z,96602.50
2019-01-06T09:15:16.705Z,96595.67
2019-01-06T09:18:07.005Z,96603.63
2019-01-06T09:21:13.793Z,96602.99
2019-01-06T09:24:11.325Z,96609.03
2019-01-06T09:27:05.643Z,96612.60
2019-01-06T09:29:55.914Z,96625.03
2019-01-06T09:33:02.700Z,96623.10
2019-01-06T09:35:52.670Z,96624.03
2019-01-06T09:38:37.379Z,96623.42
2019-01-06T09:41:31.734Z,96623.80
2019-01-06T09:44:25.986Z,96624.02
2019-01-06T09:47:20.531Z,96619.48
2019-01-06T09:50:05.405Z,96622.33
2019-01-06T09:53:03.111Z,96624.77
2019-01-06T09:55:53.398Z,96626.75
2019-01-06T09:58:43.439Z,96637.41
2019-01-06T10:01:43.856Z,96632.73
2019-01-06T10:04:35.364Z,96632.27
2019-01-06T10:07:33.022Z,96630.04
2019-01-06T10:10:23.460Z,96629.00
2019-01-06T10:13:18.068Z,96633.67
2019-01-06T10:16:08.423Z,96633.69
2019-01-06T10:18:58.581Z,96627.11
2019-01-06T10:21:57.595Z,96625.03
2019-01-06T10:24:52.079Z,96620.44
2019-01-06T10:27:32.018Z,96620.19
2019-01-06T10:30:32.075Z,96624.05
2019-01-06T10:33:29.283Z,96628.29
2019-01-06T10:36:32.004Z,96618.92
2019-01-06T10:39:27.734Z,96622.19
2019-01-06T10:42:17.695Z,96626.30
2019-01-06T10:45:15.306Z,96622.08
2019-01-06T10:48:06.720Z,96626.75
2019-01-06T10:51:16.304Z,96619.17
2019-01-06T10:54:10.676Z,96625.88
2019-01-06T10:57:01.170Z,96625.37
2019-01-06T10:59:58.851Z,96631.02
2019-01-06T11:03:02.587Z,96628.92
2019-01-06T11:05:52.780Z,96631.11
2019-01-06T11:08:42.992Z,96629.69
2019-01-06T11:11:32.665Z,96628.85
2019-01-06T11:14:24.138Z,96621.97
2019-01-06T11:17:14.327Z,96620.34
2019-01-06T11:20:18.011Z,96619.86
2019-01-06T11:23:24.530Z,96616.34
2019-01-06T11:26:22.211Z,96624.91
2019-01-06T11:29:21.388Z,96617.62
2019-01-06T11:32:19.290Z,96612.02
2019-01-06T11:35:16.523Z,96610.64
2019-01-06T11:38:17.513Z,96613.08
2019-01-06T11:41:21.250Z,96614.84
2019-01-06T11:44:10.834Z,96603.81
2019-01-06T11:47:02.267Z,96601.39
2019-01-06T11:50:05.869Z,96596.23
2019-01-06T11:53:06.383Z,96592.69
2019-01-06T11:55:56.440Z,96587.66
2019-01-06T11:58:42.558Z,96596.58
2019-01-06T12:01:37.742Z,96592.95
2019-01-06T12:04:32.310Z,96593.64
2019-01-06T12:07:35.011Z,96587.07
2019-01-06T12:10:29.988Z,96591.52
2019-01-06T12:13:22.579Z,96589.66
2019-01-06T12:16:12.940Z,96587.66
2019-01-06T12:19:10.376Z,96587.79
2019-01-06T12:22:01.982Z,96592.00
2019-01-06T12:24:52.288Z,96582.62
2019-01-06T12:27:55.864Z,96584.27
2019-01-06T12:30:51.785Z,96584.72
2019-01-06T12:34:01.635Z,96587.06
2019-01-06T12:36:51.598Z,96584.39
2019-01-06T12:39:42.051Z,96580.29
2019-01-06T12:42:32.550Z,96586.23
2019-01-06T12:45:36.783Z,96584.52
2019-01-06T12:48:43.479Z,96582.75
2019-01-06T12:51:33.548Z,96583.66
2019-01-06T12:54:23.194Z,96588.58
2019-01-06T12:57:11.266Z,96590.94
2019-01-06T13:00:02.832Z,96585.45
2019-01-06T13:02:55.232Z,96586.73
2019-01-06T13:05:45.617Z,96593.24
2019-01-06T13:08:35.759Z,96595.12
2019-01-06T13:11:29.319Z,96594.53
2019-01-06T13:14:19.617Z,96592.53
2019-01-06T13:17:14.548Z,96598.86
2019-01-06T13:20:05.105Z,96603.44
2019-01-06T13:23:01.757Z,96602.86
2019-01-06T13:25:51.689Z,96604.84
2019-01-06T13:28:41.898Z,96599.44
2019-01-06T13:31:48.625Z,96604.52
2019-01-06T13:34:51.879Z,96604.52
2019-01-06T13:37:42.024Z,96601.25
2019-01-06T13:40:36.345Z,96600.30
2019-01-06T13:43:24.233Z,96597.73
2019-01-06T13:46:15.680Z,96600.98
2019-01-06T13:49:07.282Z,96610.50
2019-01-06T13:52:01.737Z,96611.42
2019-01-06T13:55:05.328Z,96624.91
2019-01-06T13:57:59.154Z,96625.94
2019-01-06T14:00:45.655Z,96623.20
2019-01-06T14:03:45.988Z,96627.32
2019-01-06T14:06:36.044Z,96623.37
2019-01-06T14:09:26.219Z,96624.41
2019-01-06T14:12:08.933Z,96620.08
2019-01-06T14:15:02.526Z,96620.08
2019-01-06T14:18:09.113Z,96621.40
2019-01-06T14:20:59.085Z,96623.05
2019-01-06T14:23:49.543Z,96620.69
2019-01-06T14:26:40.920Z,96622.59
2019-01-06T14:29:31.105Z,96627.62
2019-01-06T14:32:28.395Z,96631.59
2019-01-06T14:35:29.336Z,96627.14
2019-01-06T14:38:18.172Z,96623.87
2019-01-06T14:41:24.640Z,96629.03
2019-01-06T14:44:21.894Z,96630.19
2019-01-06T14:47:11.860Z,96637.92
2019-01-06T14:50:09.539Z,96637.57
2019-01-06T14:53:16.237Z,96633.95
2019-01-06T14:56:14.318Z,96641.91
2019-01-06T14:59:15.154Z,96641.91
2019-01-06T15:02:06.605Z,96648.21
2019-01-06T15:04:56.878Z,96649.75
2019-01-06T15:07:43.783Z,96648.48
2019-01-06T15:10:34.281Z,96643.31
2019-01-06T15:13:28.692Z,96648.23
2019-01-06T15:16:20.292Z,96650.89
2019-01-06T15:19:17.891Z,96651.95
2019-01-06T15:22:08.053Z,96644.09
2019-01-06T15:25:05.726Z,96642.70
2019-01-06T15:27:58.189Z,96646.08
2019-01-06T15:31:01.882Z,96654.75
2019-01-06T15:33:51.871Z,96648.75
2019-01-06T15:36:41.944Z,96650.03
2019-01-06T15:39:33.389Z,96650.73
2019-01-06T15:42:32.795Z,96649.10
2019-01-06T15:45:23.679Z,96649.57
2019-01-06T15:48:33.443Z,96647.93
2019-01-06T15:51:31.004Z,96648.50
2019-01-06T15:54:25.520Z,96652.03
2019-01-06T15:57:19.761Z,96649.31
2019-01-06T16:00:14.341Z,96646.95
2019-01-06T16:03:20.862Z,96649.06
2019-01-06T16:06:11.249Z,96649.98
2019-01-06T16:09:05.558Z,96652.41
2019-01-06T16:12:15.101Z,96657.11
2019-01-06T16:15:12.793Z,96658.70
2019-01-06T16:18:07.669Z,96661.86
2019-01-06T16:21:08.284Z,96659.80
2019-01-06T16:24:05.584Z,96662.31
2019-01-06T16:26:55.644Z,96667.00
2019-01-06T16:29:56.367Z,96668.63
2019-01-06T16:32:50.814Z,96672.35
2019-01-06T16:35:42.300Z,96682.34
2019-01-06T16:38:40.162Z,96676.06
2019-01-06T16:41:37.509Z,96677.50
2019-01-06T16:44:28.966Z,96682.27
2019-01-06T16:47:15.513Z,96685.91
2019-01-06T16:50:05.914Z,96683.67
2019-01-06T16:53:09.611Z,96693.14
2019-01-06T16:56:00.034Z,96693.81
2019-01-06T16:58:50.011Z,96692.08
2019-01-06T17:01:40.011Z,96690.78
2019-01-06T17:04:30.339Z,96689.19
2019-01-06T17:07:15.357Z,96696.68
2019-01-06T17:10:05.459Z,96695.66
2019-01-06T17:12:55.568Z,96696.27
2019-01-06T17:15:50.370Z,96700.88
2019-01-06T17:18:41.066Z,96693.05
2019-01-06T17:21:33.408Z,96693.43
2019-01-06T17:24:37.259Z,96690.70
2019-01-06T17:27:27.801Z,96692.82
2019-01-06T17:30:18.223Z,96696.91
2019-01-06T17:33:12.406Z,96694.52
2019-01-06T17:36:03.868Z,96701.00
2019-01-06T17:38:52.560Z,96697.03
2019-01-06T17:41:42.730Z,96698.09
2019-01-06T17:44:46.316Z,96699.94
2019-01-06T17:47:30.927Z,96696.27
2019-01-06T17:50:21.255Z,96702.92
2019-01-06T17:53:18.624Z,96698.76
2019-01-06T17:56:15.951Z,96697.43
2019-01-06T17:59:07.364Z,96698.38
2019-01-06T18:01:57.505Z,96690.44
2019-01-06T18:04:47.818Z,96696.64
2019-01-06T18:07:30.177Z,96696.75
2019-01-06T18:10:21.958Z,96700.11
2019-01-06T18:13:13.434Z,96689.34
2019-01-06T18:16:04.896Z,96699.06
2019-01-06T18:19:05.283Z,96690.89
2019-01-06T18:22:12.000Z,96695.42
2019-01-06T18:25:03.487Z,96702.47
2019-01-06T18:27:53.920Z,96697.55
2019-01-06T18:30:51.363Z,96704.92
2019-01-06T18:33:48.933Z,96700.34
2019-01-06T18:36:40.335Z,96699.46
2019-01-06T18:39:30.081Z,96708.80
2019-01-06T18:42:21.493Z,96701.92
2019-01-06T18:45:13.010Z,96709.98
2019-01-06T18:48:03.003Z,96702.27
2019-01-06T18:50:53.142Z,96713.27
2019-01-06T18:53:44.900Z,96703.16
2019-01-06T18:56:39.537Z,96708.98
2019-01-06T18:59:31.017Z,96708.79
2019-01-06T19:02:21.315Z,96710.20
2019-01-06T19:05:11.294Z,96704.88
2019-01-06T19:08:08.555Z,96703.14
2019-01-06T19:11:06.946Z,96697.16
2019-01-06T19:13:53.552Z,96697.84
2019-01-06T19:17:00.028Z,96702.19
2019-01-06T19:19:49.990Z,96699.91
2019-01-06T19:22:41.411Z,96700.30
2019-01-06T19:25:31.865Z,96703.77
2019-01-06T19:28:25.189Z,96702.98
2019-01-06T19:31:21.707Z,96702.86
2019-01-06T19:34:11.926Z,96704.26
2019-01-06T19:36:57.191Z,96702.20
2019-01-06T19:40:00.573Z,96702.77
2019-01-06T19:42:51.995Z,96701.25
2019-01-06T19:45:49.995Z,96715.69
2019-01-06T19:48:39.989Z,96709.31
2019-01-06T19:51:30.332Z,96709.20
2019-01-06T19:54:24.764Z,96710.59
2019-01-06T20:03:09.580Z,96706.84
2019-01-06T20:06:07.446Z,96719.94
2019-01-06T20:09:11.059Z,96718.58
2019-01-06T20:12:08.413Z,96712.38
2019-01-06T20:15:02.948Z,96712.16
2019-01-06T20:17:44.187Z,96704.34
2019-01-06T20:20:38.497Z,96704.15
2019-01-06T20:23:36.235Z,96703.31
2019-01-06T20:26:39.944Z,96700.13
2019-01-06T20:29:31.587Z,96699.91
2019-01-06T20:32:23.099Z,96695.94
2019-01-06T20:35:32.934Z,96701.98
2019-01-06T20:38:30.571Z,96699.02
2019-01-06T20:41:28.060Z,96695.38
2019-01-06T20:44:19.535Z,96697.89
2019-01-06T20:47:26.400Z,96704.33
2019-01-06T20:50:23.723Z,96700.75
2019-01-06T20:53:13.758Z,96703.50
2019-01-06T20:56:08.126Z,96708.97
2019-01-06T20:59:08.474Z,96707.34
2019-01-06T21:02:18.087Z,96709.59
2019-01-06T21:05:15.419Z,96718.13
2019-01-06T21:08:00.157Z,96710.61
2019-01-06T21:10:53.251Z,96713.66
2019-01-06T21:13:50.906Z,96717.19
2019-01-06T21:16:41.133Z,96719.77
2019-01-06T21:19:41.682Z,96720.66
2019-01-06T21:22:31.866Z,96723.05
2019-01-06T21:25:29.553Z,96723.78
2019-01-06T21:28:14.846Z,96723.63
2019-01-06T21:31:09.301Z,96733.95
2019-01-06T21:34:11.021Z,96725.02
2019-01-06T21:37:01.270Z,96737.70
2019-01-06T21:39:51.448Z,96728.25
2019-01-06T21:42:41.796Z,96739.44
2019-01-06T21:45:32.002Z,96736.74
2019-01-06T21:48:33.793Z,96741.73
2019-01-06T21:51:40.615Z,96741.02
2019-01-06T21:54:40.264Z,96738.20
2019-01-06T21:57:40.631Z,96738.61
2019-01-06T22:00:30.711Z,96744.85
2019-01-06T22:03:21.084Z,96749.00
2019-01-06T22:06:12.851Z,96746.16
2019-01-06T22:09:04.372Z,96747.72
2019-01-06T22:12:07.382Z,96736.53
2019-01-06T22:15:05.057Z,96732.16
2019-01-06T22:17:55.460Z,96740.73
2019-01-06T22:21:01.921Z,96732.78
2019-01-06T22:23:52.092Z,96736.04
2019-01-06T22:26:50.414Z,96729.31
2019-01-06T22:29:50.604Z,96729.38
2019-01-06T22:32:40.873Z,96729.94
2019-01-06T22:35:31.441Z,96727.12
2019-01-06T22:38:21.811Z,96728.41
2019-01-06T22:41:12.003Z,96733.63
2019-01-06T22:44:09.644Z,96734.36
2019-01-06T22:47:00.096Z,96730.66
2019-01-06T22:49:57.498Z,96732.33
2019-01-06T22:52:48.923Z,96734.79
2019-01-06T22:55:40.386Z,96727.58
2019-01-06T22:58:43.439Z,96736.13
2019-01-06T23:01:34.636Z,96730.55
2019-01-06T23:04:29.326Z,96731.33
2019-01-06T23:07:23.641Z,96736.81
2019-01-06T23:10:09.749Z,96737.20
2019-01-06T23:12:59.938Z,96739.90
2019-01-06T23:15:46.953Z,96743.08
2019-01-06T23:18:45.431Z,96737.70
2019-01-06T23:21:42.859Z,96738.03
2019-01-06T23:24:32.952Z,96739.77
2019-01-06T23:27:22.469Z,96738.78
2019-01-06T23:30:13.867Z,96735.30
2019-01-06T23:32:57.879Z,96742.55
2019-01-06T23:35:52.102Z,96736.13
2019-01-06T23:38:42.129Z,96732.73
2019-01-06T23:41:32.164Z,96731.84
2019-01-06T23:44:22.216Z,96728.92
2019-01-06T23:47:12.155Z,96732.34
2019-01-06T23:49:58.024Z,96731.28
2019-01-06T23:52:55.437Z,96728.81
2019-01-06T23:55:52.590Z,96725.58
2019-01-06T23:58:42.817Z,96724.00
